Time;durP1;ratioP1;P1;durP2;ratioP2;P2;SDS_P1;SDS_P2;PMS_P1;PMS_P2;Temp;Humidity;BMP_temperature;BMP_pressure;BME280_temperature;BME280_humidity;BME280_pressure;Samples;Min_cycle;Max_cycle;Signal;HPM_P1;HPM_P2
2021/10/12 00:02:18;;;;;;;38.00;4.72;;;28.90;21.10;;;;;;5088206;28;20457;-70
2021/10/12 00:04:45;;;;;;;38.88;4.35;;;;;;;;;;5090385;28;20080;-71
2021/10/12 00:07:11;;;;;;;54.97;5.50;;;;;;;;;;5087169;28;20073;-68
2021/10/12 00:09:38;;;;;;;30.67;4.03;;;29.00;34.00;;;;;;5087918;28;20027;-69
2021/10/12 00:12:05;;;;;;;34.83;4.10;;;28.80;20.50;;;;;;5088539;28;20513;-72
2021/10/12 00:14:31;;;;;;;22.20;3.47;;;28.80;27.30;;;;;;5103428;28;20129;-68
2021/10/12 00:16:58;;;;;;;33.50;4.72;;;28.60;21.60;;;;;;5088558;28;20071;-68
2021/10/12 00:19:24;;;;;;;31.58;3.92;;;;;;;;;;5087636;28;20075;-68
2021/10/12 00:21:51;;;;;;;36.22;5.30;;;28.30;50.60;;;;;;5087976;28;20035;-70
2021/10/12 00:24:17;;;;;;;33.65;5.13;;;28.20;23.40;;;;;;5088012;28;20643;-64
2021/10/12 00:26:44;;;;;;;52.58;5.70;;;28.00;40.20;;;;;;5087399;28;20080;-70
2021/10/12 00:29:10;;;;;;;58.08;6.00;;;28.00;23.50;;;;;;5086839;28;20571;-71
2021/10/12 00:31:37;;;;;;;68.55;7.47;;;27.90;24.10;;;;;;5087573;28;20073;-71
2021/10/12 00:34:03;;;;;;;77.30;8.73;;;27.70;24.10;;;;;;5087844;28;20084;-71
2021/10/12 00:36:30;;;;;;;52.65;6.75;;;27.60;24.60;;;;;;5087744;28;20098;-70
2021/10/12 00:38:56;;;;;;;49.05;6.57;;;27.40;25.20;;;;;;5088873;28;20538;-70
2021/10/12 00:41:23;;;;;;;44.28;5.70;;;27.30;25.40;;;;;;5087588;28;20146;-68
2021/10/12 00:43:50;;;;;;;38.80;5.25;;;26.90;59.10;;;;;;5088062;28;20088;-63
2021/10/12 00:46:16;;;;;;;38.80;4.78;;;27.10;28.60;;;;;;5087466;28;20020;-70
2021/10/12 00:48:43;;;;;;;35.05;5.93;;;;;;;;;;5087906;28;20089;-70
2021/10/12 00:51:09;;;;;;;25.55;4.43;;;26.90;47.60;;;;;;5088714;28;20028;-69
2021/10/12 00:53:36;;;;;;;26.95;4.30;;;26.60;55.80;;;;;;5087430;28;20072;-69
2021/10/12 00:56:02;;;;;;;29.05;5.10;;;;;;;;;;5087338;28;20812;-69
2021/10/12 00:58:29;;;;;;;34.92;5.28;;;;;;;;;;5085841;28;20040;-70
2021/10/12 01:00:55;;;;;;;33.80;5.35;;;;;;;;;;5090682;28;20478;-69
2021/10/12 01:03:22;;;;;;;36.80;5.55;;;26.40;27.40;;;;;;5090714;28;20046;-69
2021/10/12 01:05:48;;;;;;;37.65;6.93;;;26.00;58.90;;;;;;5092296;28;20370;-71
2021/10/12 01:08:15;;;;;;;50.75;6.50;;;25.90;61.90;;;;;;5092338;28;20024;-67
2021/10/12 01:10:42;;;;;;;49.00;6.10;;;25.90;50.70;;;;;;5092550;28;20206;-71
2021/10/12 01:13:08;;;;;;;48.17;6.50;;;25.90;27.90;;;;;;5090876;28;20094;-70
2021/10/12 01:15:35;;;;;;;69.35;8.52;;;25.70;28.50;;;;;;5074365;28;20080;-70
2021/10/12 01:18:01;;;;;;;77.10;8.30;;;25.50;29.00;;;;;;5056653;28;20084;-71
2021/10/12 01:20:35;;;;;;;68.75;7.68;;;25.30;29.80;;;;;;5074258;28;20175;-72
2021/10/12 01:23:02;;;;;;;37.33;6.18;;;25.10;30.50;;;;;;5090878;28;20084;-70
2021/10/12 01:25:28;;;;;;;67.85;8.48;;;24.40;51.80;;;;;;5103137;28;20105;-68
2021/10/12 01:27:55;;;;;;;104.97;10.57;;;;;;;;;;5091753;28;20067;-68
2021/10/12 01:30:21;;;;;;;91.05;8.48;;;24.10;36.00;;;;;;5089992;28;20497;-71
2021/10/12 01:32:48;;;;;;;186.30;16.45;;;23.70;36.90;;;;;;5096824;28;20542;-67
2021/10/12 01:35:16;;;;;;;204.48;17.73;;;;;;;;;;5090089;28;20064;-68
2021/10/12 01:37:43;;;;;;;207.73;16.90;;;;;;;;;;5093765;28;20028;-66
2021/10/12 01:40:12;;;;;;;255.95;20.85;;;22.80;36.00;;;;;;5095263;28;20028;-68
2021/10/12 01:42:39;;;;;;;287.52;24.70;;;23.40;55.50;;;;;;5088925;28;20035;-67
2021/10/12 01:45:09;;;;;;;316.70;25.95;;;22.70;37.10;;;;;;5090930;28;20170;-68
2021/10/12 01:47:35;;;;;;;307.52;25.55;;;22.60;37.70;;;;;;5090584;28;20084;-68
2021/10/12 01:50:03;;;;;;;226.95;19.17;;;22.40;38.70;;;;;;5090489;28;20183;-68
2021/10/12 01:52:30;;;;;;;225.43;18.25;;;22.30;37.80;;;;;;5093791;28;20051;-67
2021/10/12 01:54:56;;;;;;;269.50;23.70;;;22.60;49.20;;;;;;5093321;28;20541;-66
2021/10/12 01:57:23;;;;;;;168.77;14.60;;;22.20;38.70;;;;;;5090265;28;20073;-66
2021/10/12 01:59:49;;;;;;;166.45;14.50;;;22.00;66.50;;;;;;5089845;28;20164;-68
2021/10/12 02:02:16;;;;;;;141.48;14.15;;;22.50;54.40;;;;;;5092752;28;20085;-66
2021/10/12 02:04:42;;;;;;;153.00;14.70;;;;;;;;;;5071707;28;20053;-70
2021/10/12 02:07:09;;;;;;;145.52;13.60;;;;;;;;;;5089848;28;20514;-69
2021/10/12 02:09:36;;;;;;;160.40;13.32;;;21.90;58.20;;;;;;5090719;28;20447;-67
2021/10/12 02:12:02;;;;;;;175.27;16.60;;;;;;;;;;5091125;28;20077;-65
2021/10/12 02:14:29;;;;;;;168.50;16.33;;;21.60;43.40;;;;;;5072708;28;20127;-69
2021/10/12 02:16:55;;;;;;;158.52;14.40;;;21.50;60.10;;;;;;5090181;28;20069;-72
2021/10/12 02:19:22;;;;;;;113.70;11.57;;;21.40;58.30;;;;;;5091346;28;20074;-67
2021/10/12 02:21:48;;;;;;;137.35;14.18;;;21.40;40.00;;;;;;5090402;28;20404;-66
2021/10/12 02:24:15;;;;;;;121.80;12.80;;;21.50;40.80;;;;;;5090888;28;20071;-70
2021/10/12 02:26:41;;;;;;;96.20;10.63;;;21.40;40.60;;;;;;5090166;28;20075;-69
2021/10/12 02:29:08;;;;;;;122.75;12.05;;;21.30;40.70;;;;;;5089758;28;20163;-67
2021/10/12 02:31:35;;;;;;;81.07;10.15;;;21.20;60.90;;;;;;5089616;28;20088;-69
2021/10/12 02:34:01;;;;;;;109.40;13.07;;;21.30;62.60;;;;;;5089897;28;20077;-68
2021/10/12 02:36:28;;;;;;;89.40;12.10;;;20.80;63.90;;;;;;5090702;28;20124;-67
2021/10/12 02:38:54;;;;;;;105.63;13.02;;;20.80;57.20;;;;;;5088915;28;20111;-64
2021/10/12 02:41:20;;;;;;;130.30;13.50;;;21.80;50.00;;;;;;5090273;28;20085;-68
2021/10/12 02:43:47;;;;;;;109.25;13.18;;;21.00;42.50;;;;;;5089352;28;20093;-68
2021/10/12 02:46:14;;;;;;;116.05;12.18;;;20.90;42.60;;;;;;5089385;28;20095;-71
2021/10/12 02:48:40;;;;;;;114.00;11.85;;;21.00;42.60;;;;;;5090257;28;20099;-67
2021/10/12 02:51:06;;;;;;;;;;;21.00;42.40;;;;;;5090894;28;20084;-68
2021/10/12 02:53:32;;;;;;;194.85;16.08;;;21.00;42.60;;;;;;5088889;28;20342;-63
2021/10/12 02:55:59;;;;;;;152.73;14.48;;;20.90;42.30;;;;;;5089004;28;20098;-67
2021/10/12 02:58:25;;;;;;;192.27;17.33;;;20.80;42.50;;;;;;5089032;28;20069;-66
2021/10/12 03:00:52;;;;;;;188.07;17.63;;;20.80;42.50;;;;;;5089261;28;20165;-66
2021/10/12 03:03:18;;;;;;;239.60;19.08;;;20.80;42.50;;;;;;5090221;28;20068;-67
2021/10/12 03:05:45;;;;;;;;;;;20.70;42.40;;;;;;5089478;28;20527;-67
2021/10/12 03:08:11;;;;;;;210.50;18.73;;;20.70;42.20;;;;;;5088661;28;19956;-67
2021/10/12 03:10:37;;;;;;;;;;;20.80;42.10;;;;;;5090810;28;20090;-65
2021/10/12 03:13:04;;;;;;;311.23;23.95;;;20.80;41.40;;;;;;5071468;28;19955;-66
2021/10/12 03:15:30;;;;;;;361.55;27.65;;;20.90;41.10;;;;;;5090168;28;20068;-66
2021/10/12 03:17:56;;;;;;;;;;;20.80;40.80;;;;;;5088592;28;20092;-68
2021/10/12 03:20:23;;;;;;;335.73;25.77;;;20.80;40.70;;;;;;5089878;28;20375;-70
2021/10/12 03:22:50;;;;;;;317.52;23.05;;;20.80;40.70;;;;;;5088255;28;20450;-68
2021/10/12 03:25:17;;;;;;;347.73;24.38;;;20.70;40.80;;;;;;5090181;28;20083;-70
2021/10/12 03:27:43;;;;;;;424.83;28.23;;;20.70;40.10;;;;;;5087982;28;20102;-68
2021/10/12 03:30:09;;;;;;;;;;;20.70;40.30;;;;;;5088403;28;20082;-67
2021/10/12 03:32:36;;;;;;;470.13;33.88;;;20.70;40.10;;;;;;5088430;28;20710;-69
2021/10/12 03:35:02;;;;;;;329.08;26.50;;;20.70;39.80;;;;;;5089671;28;20073;-66
2021/10/12 03:37:29;;;;;;;300.45;23.00;;;20.60;39.80;;;;;;5087971;28;20069;-70
2021/10/12 03:39:55;;;;;;;;;;;20.60;39.90;;;;;;5089611;28;20133;-65
2021/10/12 03:42:23;;;;;;;177.40;15.23;;;20.50;39.10;;;;;;5092905;28;20012;-70
2021/10/12 03:44:49;;;;;;;;;;;20.60;37.20;;;;;;5088157;28;20073;-69
2021/10/12 03:47:15;;;;;;;280.75;19.40;;;20.70;36.90;;;;;;5087264;28;19979;-69
2021/10/12 03:49:41;;;;;;;;;;;20.60;38.40;;;;;;5088872;28;20095;-71
2021/10/12 03:52:08;;;;;;;245.32;21.88;;;20.50;38.80;;;;;;5088525;28;19964;-72
2021/10/12 03:54:34;;;;;;;;;;;20.40;38.80;;;;;;5088805;28;20070;-73
2021/10/12 03:57:00;;;;;;;300.50;21.98;;;20.40;38.70;;;;;;5084217;28;19976;-67
2021/10/12 03:59:26;;;;;;;;;;;20.40;39.00;;;;;;5088661;28;20119;-70
2021/10/12 04:01:52;;;;;;;250.93;18.90;;;20.30;39.70;;;;;;5090412;28;19971;-66
2021/10/12 04:04:18;;;;;;;;;;;20.30;40.40;;;;;;5089531;28;20187;-66
2021/10/12 04:06:45;;;;;;;218.05;16.70;;;20.10;41.00;;;;;;5071022;28;19967;-66
2021/10/12 04:09:11;;;;;;;;;;;20.10;41.40;;;;;;5088010;28;20149;-69
2021/10/12 04:11:37;;;;;;;281.08;20.70;;;20.00;41.50;;;;;;5089120;28;19973;-64
2021/10/12 04:14:04;;;;;;;177.80;16.30;;;20.00;42.10;;;;;;5087725;28;20134;-68
2021/10/12 04:16:30;;;;;;;;;;;20.00;42.30;;;;;;5089242;28;20095;-67
2021/10/12 04:18:57;;;;;;;83.15;11.30;;;19.90;42.70;;;;;;5087748;28;20030;-66
2021/10/12 04:21:23;;;;;;;;;;;19.90;42.90;;;;;;5087625;28;20100;-67
2021/10/12 04:23:49;;;;;;;77.72;9.82;;;19.80;43.20;;;;;;5090031;28;19968;-65
2021/10/12 04:26:18;;;;;;;;;;;19.80;43.50;;;;;;5089406;28;20077;-68
2021/10/12 04:28:45;;;;;;;45.75;8.27;;;19.80;43.90;;;;;;5088622;28;19967;-67
2021/10/12 04:31:11;;;;;;;68.97;8.48;;;19.70;44.20;;;;;;5087917;28;20097;-70
2021/10/12 04:33:38;;;;;;;54.40;9.27;;;19.70;44.10;;;;;;5089917;28;20410;-71
2021/10/12 04:36:04;;;;;;;;;;;19.80;44.10;;;;;;5091607;28;20566;-68
2021/10/12 04:38:30;;;;;;;34.60;7.75;;;19.80;44.00;;;;;;5089486;28;20044;-64
2021/10/12 04:40:57;;;;;;;49.58;8.70;;;19.80;44.20;;;;;;5091436;28;20144;-66
2021/10/12 04:43:24;;;;;;;45.25;8.05;;;19.80;44.20;;;;;;5092712;28;20434;-67
2021/10/12 04:45:50;;;;;;;40.97;7.63;;;19.80;44.30;;;;;;5090202;28;20092;-68
2021/10/12 04:48:16;;;;;;;41.95;7.65;;;19.80;44.50;;;;;;5092265;28;20127;-67
2021/10/12 04:50:43;;;;;;;38.90;7.28;;;19.80;44.50;;;;;;5089129;28;20088;-69
2021/10/12 04:53:09;;;;;;;30.48;7.28;;;19.80;44.60;;;;;;5091026;28;20523;-67
2021/10/12 04:55:40;;;;;;;;;;;19.80;44.70;;;;;;5089765;28;20539;-67
2021/10/12 04:58:08;;;;;;;39.20;7.97;;;19.80;45.00;;;;;;5086029;28;19957;-67
2021/10/12 05:00:35;;;;;;;43.88;7.72;;;19.80;45.40;;;;;;5089707;28;20079;-66
2021/10/12 05:03:01;;;;;;;39.72;7.95;;;19.70;45.40;;;;;;5089576;28;20089;-70
2021/10/12 05:05:28;;;;;;;36.17;7.97;;;19.80;45.50;;;;;;5088192;28;20080;-67
2021/10/12 05:07:54;;;;;;;39.10;7.78;;;19.80;45.70;;;;;;5073269;28;20075;-67
2021/10/12 05:10:20;;;;;;;34.50;8.02;;;19.80;45.90;;;;;;5089607;28;20092;-67
2021/10/12 05:12:46;;;;;;;;;;;19.80;46.10;;;;;;5089722;28;20109;-68
2021/10/12 05:15:20;;;;;;;39.22;7.95;;;19.80;46.20;;;;;;5073411;28;20003;-68
2021/10/12 05:17:48;;;;;;;36.80;7.25;;;19.80;45.70;;;;;;5086966;28;20073;-68
2021/10/12 05:20:14;;;;;;;32.53;7.40;;;19.80;45.10;;;;;;5091074;28;20155;-67
2021/10/12 05:22:41;;;;;;;46.20;7.45;;;19.80;45.00;;;;;;5089276;28;20088;-66
2021/10/12 05:25:07;;;;;;;46.03;7.45;;;19.80;44.70;;;;;;5096773;28;20092;-66
2021/10/12 05:27:36;;;;;;;50.08;8.02;;;19.80;43.90;;;;;;5109035;28;20559;-68
2021/10/12 05:30:11;;;;;;;47.58;8.05;;;19.90;43.80;;;;;;5096405;28;20092;-61
2021/10/12 05:32:40;;;;;;;48.67;7.88;;;19.80;43.90;;;;;;5087363;28;20155;-70
2021/10/12 05:35:07;;;;;;;45.60;7.40;;;19.80;44.10;;;;;;5087870;28;20270;-68
2021/10/12 05:37:34;;;;;;;42.80;6.72;;;19.80;43.90;;;;;;5088181;28;20582;-67
2021/10/12 05:40:01;;;;;;;42.63;7.25;;;19.80;43.50;;;;;;5087206;28;20112;-69
2021/10/12 05:42:27;;;;;;;46.13;7.57;;;19.80;43.40;;;;;;5086807;28;20528;-68
2021/10/12 05:44:53;;;;;;;;;;;19.80;43.40;;;;;;5086363;28;20077;-66
2021/10/12 05:47:19;;;;;;;47.15;7.28;;;19.70;43.20;;;;;;5087601;28;19972;-67
2021/10/12 05:49:45;;;;;;;;;;;19.80;43.00;;;;;;5089108;28;20104;-68
2021/10/12 05:52:15;;;;;;;36.45;7.35;;;19.80;42.70;;;;;;5089294;28;19957;-66
2021/10/12 05:55:04;;;;;;;51.95;7.57;;;19.80;42.50;;;;;;5087063;28;20073;-68
2021/10/12 05:57:52;;;;;;;58.15;7.35;;;19.80;42.30;;;;;;5089739;28;20084;-67
2021/10/12 06:00:19;;;;;;;40.05;7.97;;;19.80;42.70;;;;;;5086740;28;20884;-67
2021/10/12 06:02:45;;;;;;;;;;;19.70;42.90;;;;;;5087254;28;20168;-70
2021/10/12 06:05:11;;;;;;;51.15;7.50;;;19.80;43.20;;;;;;5086595;28;20063;-68
2021/10/12 06:07:37;;;;;;;46.28;8.32;;;19.70;43.50;;;;;;5086167;28;20134;-67
2021/10/12 06:10:04;;;;;;;44.03;7.20;;;19.70;43.50;;;;;;5086959;28;20534;-69
2021/10/12 06:12:31;;;;;;;32.15;6.20;;;19.70;43.40;;;;;;5087206;28;20092;-70
2021/10/12 06:14:57;;;;;;;;;;;19.70;43.20;;;;;;5088383;28;20073;-67
2021/10/12 06:17:23;;;;;;;70.07;7.90;;;19.70;43.20;;;;;;5085928;28;19972;-68
2021/10/12 06:19:49;;;;;;;43.08;6.85;;;19.70;43.10;;;;;;5086044;28;20137;-67
2021/10/12 06:22:16;;;;;;;41.92;6.22;;;19.70;43.10;;;;;;5084237;28;20077;-67
2021/10/12 06:24:42;;;;;;;41.03;7.03;;;19.70;43.00;;;;;;5086348;28;20081;-66
2021/10/12 06:27:08;;;;;;;;;;;19.70;42.80;;;;;;5086489;28;20077;-69
2021/10/12 06:29:35;;;;;;;38.53;6.65;;;19.70;42.90;;;;;;5084528;28;20414;-69
2021/10/12 06:32:01;;;;;;;;;;;19.70;42.80;;;;;;5086885;28;20617;-67
2021/10/12 06:34:27;;;;;;;46.55;7.03;;;19.60;42.70;;;;;;5085202;28;19971;-66
2021/10/12 06:36:53;;;;;;;31.13;6.47;;;19.60;42.50;;;;;;5068638;28;20176;-68
2021/10/12 06:39:19;;;;;;;;;;;19.70;42.30;;;;;;5083849;28;20136;-66
2021/10/12 06:41:46;;;;;;;47.85;6.82;;;19.70;42.40;;;;;;5085823;28;20369;-66
2021/10/12 06:44:12;;;;;;;41.85;7.13;;;19.70;42.50;;;;;;5083580;28;20493;-66
2021/10/12 06:46:39;;;;;;;36.33;7.35;;;19.70;42.60;;;;;;5084915;28;20092;-69
2021/10/12 06:49:05;;;;;;;;;;;19.70;43.10;;;;;;5086819;28;20080;-67
2021/10/12 06:51:31;;;;;;;44.17;8.25;;;19.60;43.40;;;;;;5085086;28;20546;-66
2021/10/12 06:53:57;;;;;;;;;;;19.60;43.60;;;;;;5052214;28;20088;-68
2021/10/12 06:56:24;;;;;;;41.10;7.10;;;19.60;43.60;;;;;;5083178;28;19964;-68
2021/10/12 06:58:50;;;;;;;42.33;7.53;;;19.60;43.50;;;;;;5084731;28;20064;-66
2021/10/12 07:01:16;;;;;;;;;;;19.60;43.60;;;;;;5083048;28;20183;-67
2021/10/12 07:03:43;;;;;;;40.40;7.40;;;19.50;43.60;;;;;;5081191;28;20507;-65
2021/10/12 07:06:09;;;;;;;;;;;19.50;43.40;;;;;;5084100;28;20087;-67
2021/10/12 07:08:35;;;;;;;54.00;8.07;;;19.50;43.50;;;;;;5083594;28;20448;-71
2021/10/12 07:11:01;;;;;;;;;;;19.50;43.50;;;;;;5083861;28;20115;-70
2021/10/12 07:13:30;;;;;;;47.38;7.97;;;19.50;43.30;;;;;;5083509;28;19982;-70
2021/10/12 07:15:57;;;;;;;33.55;7.50;;;19.50;43.30;;;;;;5086032;28;20589;-70
2021/10/12 07:18:24;;;;;;;40.22;7.10;;;19.40;43.40;;;;;;5083052;28;20076;-68
2021/10/12 07:20:51;;;;;;;46.10;7.35;;;19.50;42.90;;;;;;5083937;28;20069;-67
2021/10/12 07:23:17;;;;;;;51.15;8.25;;;19.50;42.70;;;;;;5081970;28;20104;-67
2021/10/12 07:25:45;;;;;;;43.85;7.32;;;19.40;42.60;;;;;;5081960;28;20087;-67
2021/10/12 07:28:11;;;;;;;47.88;7.18;;;19.40;42.60;;;;;;5084405;28;20091;-65
2021/10/12 07:30:38;;;;;;;55.05;7.35;;;19.40;42.60;;;;;;5082604;28;20719;-66
2021/10/12 07:33:04;;;;;;;47.00;7.68;;;19.40;42.60;;;;;;5083482;28;20069;-68
2021/10/12 07:35:31;;;;;;;45.75;7.10;;;19.40;43.30;;;;;;5086085;28;20122;-67
2021/10/12 07:37:57;;;;;;;;;;;19.40;42.80;;;;;;5084830;28;20065;-66
2021/10/12 07:40:24;;;;;;;50.30;7.03;;;19.40;42.70;;;;;;5083902;28;19956;-69
2021/10/12 07:42:50;;;;;;;38.63;7.53;;;19.40;42.60;;;;;;5083648;28;20080;-65
2021/10/12 07:45:17;;;;;;;54.00;7.40;;;19.40;42.50;;;;;;5084011;28;20173;-68
2021/10/12 07:47:43;;;;;;;;;;;19.40;42.50;;;;;;5085986;28;20071;-65
2021/10/12 07:50:09;;;;;;;50.10;8.10;;;19.30;42.50;;;;;;5083995;28;19976;-68
2021/10/12 07:52:37;;;;;;;50.50;8.65;;;19.30;42.50;;;;;;5083901;28;20158;-63
2021/10/12 07:57:36;;;;;;;52.35;7.88;;;19.30;42.50;;;;;;5087064;28;20067;-64
2021/10/12 08:00:03;;;;;;;;;;;19.30;42.40;;;;;;5085682;28;20088;-69
2021/10/12 08:02:29;;;;;;;61.05;7.82;;;19.20;42.50;;;;;;5086887;28;19957;-67
2021/10/12 08:04:55;;;;;;;;;;;19.20;42.40;;;;;;5085188;28;20118;-67
2021/10/12 08:07:22;;;;;;;55.50;7.68;;;19.10;42.10;;;;;;5083952;28;20451;-69
2021/10/12 08:09:49;;;;;;;58.88;8.00;;;19.10;41.70;;;;;;5089262;28;20068;-67
2021/10/12 08:12:15;;;;;;;50.45;8.13;;;19.10;41.40;;;;;;5092114;28;20102;-68
2021/10/12 08:14:45;;;;;;;;;;;19.10;41.00;;;;;;5089997;28;20072;-67
2021/10/12 08:17:12;;;;;;;53.60;7.10;;;19.10;40.60;;;;;;5090818;28;19956;-68
2021/10/12 08:19:38;;;;;;;;;;;19.10;40.40;;;;;;5089946;28;20156;-70
2021/10/12 08:22:05;;;;;;;56.95;7.85;;;19.10;40.20;;;;;;5086057;28;20055;-68
2021/10/12 08:24:31;;;;;;;57.08;7.45;;;19.10;40.00;;;;;;5090667;28;20081;-68
2021/10/12 08:26:58;;;;;;;59.35;6.80;;;19.10;39.90;;;;;;5087868;28;20076;-68
2021/10/12 08:29:24;;;;;;;59.60;7.53;;;19.10;39.80;;;;;;5086801;28;20079;-66
2021/10/12 08:31:50;;;;;;;63.47;7.93;;;19.00;39.30;;;;;;5088446;28;20092;-67
2021/10/12 08:34:17;;;;;;;;;;;19.00;38.80;;;;;;5090268;28;20068;-68
2021/10/12 08:36:43;;;;;;;64.22;7.43;;;19.00;38.40;;;;;;5086858;28;19963;-65
2021/10/12 08:39:10;;;;;;;52.15;6.72;;;19.00;38.50;;;;;;5087800;28;20103;-66
2021/10/12 08:41:53;;;;;;;62.95;6.75;;;19.00;38.80;;;;;;5087871;28;20081;-67
2021/10/12 08:44:20;;;;;;;55.78;7.10;;;18.90;39.00;;;;;;5087754;28;20072;-67
2021/10/12 08:46:47;;;;;;;60.38;7.30;;;18.90;39.00;;;;;;5087294;28;20092;-69
2021/10/12 08:49:13;;;;;;;62.10;7.60;;;18.90;39.00;;;;;;5089383;28;20080;-67
2021/10/12 08:51:49;;;;;;;69.28;8.07;;;18.90;38.50;;;;;;5087142;28;20609;-69
2021/10/12 08:54:18;;;;;;;64.30;6.15;;;18.90;38.20;;;;;;5091667;28;20092;-67
2021/10/12 08:56:44;;;;;;;62.45;7.45;;;18.90;37.60;;;;;;5088816;28;20605;-69
2021/10/12 08:59:11;;;;;;;62.33;7.10;;;18.90;37.10;;;;;;5088171;28;20530;-66
2021/10/12 09:01:57;;;;;;;61.90;7.25;;;18.80;36.30;;;;;;5089905;28;20080;-66
2021/10/12 09:04:24;;;;;;;63.47;7.03;;;18.90;35.70;;;;;;5088498;28;20084;-65
2021/10/12 09:06:54;;;;;;;73.82;6.90;;;18.90;35.10;;;;;;5088895;28;20089;-66
2021/10/12 09:09:34;;;;;;;78.25;7.28;;;18.90;34.90;;;;;;5089095;28;20163;-66
2021/10/12 09:12:02;;;;;;;65.43;6.95;;;18.80;34.70;;;;;;5087362;28;20076;-67
2021/10/12 09:14:28;;;;;;;69.28;7.28;;;18.90;34.40;;;;;;5089052;28;20065;-69
2021/10/12 09:17:02;;;;;;;;;;;18.80;34.10;;;;;;5088280;28;20108;-68
2021/10/12 09:19:33;;;;;;;64.90;6.88;;;18.80;33.90;;;;;;5086419;28;20017;-67
2021/10/12 09:22:06;;;;;;;67.07;6.95;;;18.80;33.90;;;;;;5086513;28;20073;-67
2021/10/12 09:24:38;;;;;;;66.38;7.10;;;18.80;33.90;;;;;;5086858;28;20110;-70
2021/10/12 09:27:10;;;;;;;72.95;6.32;;;18.80;33.80;;;;;;5087289;28;20449;-67
2021/10/12 09:29:46;;;;;;;76.68;6.60;;;18.70;33.70;;;;;;5086148;28;20065;-67
2021/10/12 09:32:13;;;;;;;75.20;7.68;;;18.70;33.60;;;;;;5085651;28;20081;-69
2021/10/12 09:34:42;;;;;;;77.90;7.13;;;18.70;33.50;;;;;;5085722;28;20543;-67
2021/10/12 09:37:09;;;;;;;85.20;8.00;;;18.70;33.50;;;;;;5087420;28;20076;-69
2021/10/12 09:39:41;;;;;;;93.38;7.28;;;18.70;33.70;;;;;;5071382;28;20104;-71
2021/10/12 09:42:13;;;;;;;66.45;6.93;;;18.70;33.70;;;;;;5086083;28;20088;-68
2021/10/12 09:45:00;;;;;;;75.43;6.70;;;18.70;33.30;;;;;;5086733;28;20445;-68
2021/10/12 09:47:29;;;;;;;66.25;7.13;;;18.70;33.10;;;;;;5073176;28;20964;-67
2021/10/12 09:50:10;;;;;;;66.22;7.25;;;18.70;32.90;;;;;;5088643;28;20542;-67
2021/10/12 09:52:41;;;;;;;54.17;6.25;;;18.70;32.70;;;;;;5085847;28;20076;-67
2021/10/12 09:55:09;;;;;;;72.28;6.20;;;18.60;33.00;;;;;;5071708;28;20069;-69
2021/10/12 09:57:36;;;;;;;72.88;6.63;;;18.60;32.90;;;;;;5085117;28;20080;-65
2021/10/12 10:00:05;;;;;;;60.38;5.75;;;18.60;31.60;;;;;;5086873;28;20088;-68
2021/10/12 10:02:37;;;;;;;79.63;7.28;;;18.60;31.60;;;;;;5084804;28;20552;-68
2021/10/12 10:05:03;;;;;;;74.80;6.78;;;18.60;31.40;;;;;;5086099;28;20091;-69
2021/10/12 10:07:35;;;;;;;68.43;5.88;;;18.60;31.30;;;;;;5085303;28;20085;-70
2021/10/12 10:10:04;;;;;;;62.67;6.47;;;18.60;31.40;;;;;;5083450;28;20110;-68
2021/10/12 10:12:35;;;;;;;78.97;5.75;;;18.50;31.20;;;;;;5085036;28;20080;-71
2021/10/12 10:15:03;;;;;;;62.10;6.28;;;18.50;30.80;;;;;;5084915;28;20096;-68
2021/10/12 10:17:29;;;;;;;72.63;6.10;;;18.50;30.80;;;;;;5084256;28;20069;-70
2021/10/12 10:19:57;;;;;;;63.50;5.93;;;18.50;31.10;;;;;;5084704;28;20073;-68
2021/10/12 10:25:26;;;;;;;36.47;5.20;;;18.40;30.60;;;;;;5084974;28;20072;-67
2021/10/12 10:27:52;;;;;;;82.70;6.20;;;18.40;30.40;;;;;;5086335;28;20091;-68
2021/10/12 10:30:30;;;;;;;73.93;5.90;;;18.40;30.20;;;;;;5082819;28;20607;-68
2021/10/12 10:33:00;;;;;;;65.28;5.18;;;18.40;30.20;;;;;;5083126;28;20160;-67
2021/10/12 10:35:37;;;;;;;67.95;6.25;;;18.30;30.10;;;;;;5084062;28;20069;-68
2021/10/12 10:38:21;;;;;;;68.15;5.93;;;18.30;30.10;;;;;;5069178;28;20163;-68
2021/10/12 10:40:49;;;;;;;74.95;6.05;;;18.30;30.10;;;;;;5084395;28;20092;-67
2021/10/12 10:43:15;;;;;;;76.60;6.40;;;18.30;30.00;;;;;;5086088;28;20104;-67
2021/10/12 10:45:46;;;;;;;;;;;18.20;30.00;;;;;;5084036;28;20188;-70
2021/10/12 10:48:15;;;;;;;60.75;5.28;;;18.20;30.00;;;;;;5083606;28;19956;-69
2021/10/12 10:50:42;;;;;;;52.40;5.35;;;18.20;30.00;;;;;;5053285;28;20170;-69
2021/10/12 10:53:10;;;;;;;56.53;4.88;;;18.20;30.00;;;;;;5083676;28;20199;-68
2021/10/12 10:55:42;;;;;;;74.68;5.00;;;18.20;30.00;;;;;;5083288;28;20518;-66
2021/10/12 10:58:19;;;;;;;74.68;5.28;;;18.10;30.10;;;;;;5083151;28;20080;-67
2021/10/12 11:00:53;;;;;;;43.72;4.80;;;18.20;30.20;;;;;;5083500;28;20182;-69
2021/10/12 11:03:35;;;;;;;56.78;4.20;;;18.20;30.10;;;;;;5100940;28;20161;-67
2021/10/12 11:06:04;;;;;;;61.42;5.18;;;18.20;30.10;;;;;;5083270;28;20462;-66
2021/10/12 11:08:39;;;;;;;49.50;4.97;;;18.20;30.00;;;;;;5086484;28;20080;-66
2021/10/12 11:11:10;;;;;;;51.42;4.80;;;18.20;30.20;;;;;;5082779;28;20080;-67
2021/10/12 11:13:40;;;;;;;52.78;4.35;;;18.20;30.10;;;;;;5070543;28;20822;-67
2021/10/12 11:16:16;;;;;;;58.20;4.43;;;18.10;30.10;;;;;;5083964;28;20134;-70
2021/10/12 11:18:47;;;;;;;59.80;4.18;;;18.10;30.10;;;;;;5083566;28;20163;-67
2021/10/12 11:21:20;;;;;;;58.17;4.72;;;18.10;30.10;;;;;;5084996;28;20456;-67
2021/10/12 11:23:54;;;;;;;48.88;3.78;;;18.00;30.00;;;;;;5086122;28;20111;-67
2021/10/12 11:26:22;;;;;;;48.75;4.20;;;18.00;29.90;;;;;;5086101;28;20540;-68
2021/10/12 11:28:52;;;;;;;48.35;4.68;;;18.00;30.00;;;;;;5085307;28;20579;-68
2021/10/12 11:31:21;;;;;;;63.08;5.30;;;17.90;30.00;;;;;;5085205;28;20623;-66
2021/10/12 11:33:50;;;;;;;57.97;4.30;;;17.90;30.00;;;;;;5085245;28;20542;-68
2021/10/12 11:36:18;;;;;;;53.97;4.75;;;17.80;29.80;;;;;;5085579;28;20477;-65
2021/10/12 11:38:45;;;;;;;59.72;4.82;;;17.70;29.80;;;;;;5089583;28;20109;-66
2021/10/12 11:41:17;;;;;;;47.10;4.07;;;17.70;29.60;;;;;;5084404;28;20103;-68
2021/10/12 11:43:46;;;;;;;72.18;5.28;;;17.70;29.50;;;;;;5082671;28;20164;-66
2021/10/12 11:46:20;;;;;;;64.40;5.18;;;17.60;29.40;;;;;;5084636;28;20457;-66
2021/10/12 11:48:46;;;;;;;59.75;5.43;;;17.60;28.90;;;;;;5087721;28;20073;-68
2021/10/12 11:51:13;;;;;;;;;;;17.50;28.60;;;;;;5088288;28;20099;-67
2021/10/12 11:53:42;;;;;;;50.70;3.42;;;17.50;28.10;;;;;;5089512;28;19987;-66
2021/10/12 11:56:10;;;;;;;44.75;3.22;;;17.50;27.60;;;;;;5094864;28;20085;-68
2021/10/12 11:58:38;;;;;;;56.17;3.92;;;17.50;26.70;;;;;;5093394;28;20083;-67
2021/10/12 12:01:07;;;;;;;58.25;5.10;;;17.50;26.20;;;;;;5091732;28;20156;-67
2021/10/12 12:03:33;;;;;;;43.42;2.78;;;17.50;25.60;;;;;;5093069;28;20077;-66
2021/10/12 12:05:59;;;;;;;;;;;17.50;25.30;;;;;;5090572;28;20488;-65
2021/10/12 12:08:30;;;;;;;32.17;2.78;;;17.50;25.00;;;;;;5094831;28;19977;-66
2021/10/12 12:10:57;;;;;;;44.70;3.08;;;17.50;24.80;;;;;;5080260;28;20106;-68
2021/10/12 12:13:28;;;;;;;33.78;2.78;;;17.50;24.60;;;;;;5084601;28;20080;-65
2021/10/12 12:15:55;;;;;;;27.30;2.53;;;17.50;24.90;;;;;;5083212;28;20210;-68
2021/10/12 12:18:24;;;;;;;24.92;2.72;;;17.50;24.30;;;;;;5084314;28;20570;-68
2021/10/12 12:21:00;;;;;;;34.53;3.10;;;17.50;24.30;;;;;;5087072;28;20188;-67
2021/10/12 12:23:40;;;;;;;30.58;2.30;;;17.60;24.30;;;;;;5086321;28;20537;-68
2021/10/12 12:26:10;;;;;;;29.20;2.45;;;17.60;23.80;;;;;;5083478;28;20191;-66
2021/10/12 12:28:37;;;;;;;38.58;2.67;;;17.60;23.60;;;;;;5087507;28;20087;-63
2021/10/12 12:31:27;;;;;;;35.75;2.17;;;17.70;23.50;;;;;;5085665;28;20581;-67
2021/10/12 12:33:56;;;;;;;34.95;2.28;;;17.70;23.40;;;;;;5084863;28;20076;-65
2021/10/12 12:36:34;;;;;;;39.92;2.78;;;17.70;23.50;;;;;;5083732;28;20065;-65
2021/10/12 12:39:08;;;;;;;24.40;2.08;;;17.70;23.60;;;;;;5083810;28;20105;-66
2021/10/12 12:41:42;;;;;;;39.60;3.00;;;17.60;23.80;;;;;;5085932;28;20076;-66
2021/10/12 12:44:10;;;;;;;35.65;2.90;;;17.60;24.00;;;;;;5088152;28;20085;-65
2021/10/12 12:46:53;;;;;;;21.73;2.25;;;17.60;23.90;;;;;;5087237;28;20100;-67
2021/10/12 12:49:19;;;;;;;31.70;3.03;;;17.50;24.30;;;;;;5084937;28;20089;-67
2021/10/12 12:51:46;;;;;;;25.90;2.92;;;17.40;24.50;;;;;;5086066;28;20093;-67
2021/10/12 12:54:43;;;;;;;24.42;2.08;;;17.30;24.70;;;;;;5087362;28;20077;-67
2021/10/12 12:57:19;;;;;;;34.45;2.47;;;17.20;24.80;;;;;;5089808;28;20114;-65
2021/10/12 13:00:05;;;;;;;31.70;2.50;;;17.20;24.90;;;;;;5089921;28;20082;-67
2021/10/12 13:02:32;;;;;;;23.60;2.75;;;17.20;24.90;;;;;;5090821;28;20534;-69